createdAt,value
2023-05-01T00:00:29.418Z,21.60
2023-05-01T00:02:56.690Z,21.57
2023-05-01T00:05:23.767Z,20.87
2023-05-01T00:07:50.958Z,21.47
2023-05-01T00:10:20.315Z,21.53
2023-05-01T00:12:47.404Z,23.80
2023-05-01T00:15:14.562Z,24.17
2023-05-01T00:17:41.545Z,22.70
2023-05-01T00:20:09.080Z,23.03
2023-05-01T00:22:35.990Z,24.50
2023-05-01T00:25:02.831Z,24.27
2023-05-01T00:27:29.667Z,25.37
2023-05-01T00:29:56.732Z,27.03
2023-05-01T00:32:24.007Z,25.03
2023-05-01T00:34:50.908Z,26.07
2023-05-01T00:37:18.520Z,26.90
2023-05-01T00:39:47.845Z,25.40
2023-05-01T00:42:15.043Z,25.57
2023-05-01T00:44:41.951Z,25.20
2023-05-01T00:47:09.079Z,24.20
2023-05-01T00:49:36.475Z,26.43
2023-05-01T00:52:03.760Z,23.90
2023-05-01T00:54:30.993Z,25.80
2023-05-01T00:56:58.515Z,23.10
2023-05-01T00:59:25.723Z,24.33
2023-05-01T01:01:54.957Z,24.87
2023-05-01T01:04:23.317Z,24.33
2023-05-01T01:07:08.260Z,23.43
2023-05-01T01:10:20.470Z,24.00
2023-05-01T01:12:58.841Z,24.23
2023-05-01T01:16:19.791Z,23.47
2023-05-01T01:18:50.102Z,23.87
2023-05-01T01:21:39.941Z,24.37
2023-05-01T01:24:44.981Z,23.77
2023-05-01T01:27:39.112Z,22.20
2023-05-01T01:30:23.283Z,24.27
2023-05-01T01:33:10.598Z,23.70
2023-05-01T01:35:42.814Z,24.43
2023-05-01T01:38:22.916Z,23.20
2023-05-01T01:41:22.054Z,23.80
2023-05-01T01:43:58.032Z,22.27
2023-05-01T01:46:26.450Z,22.53
2023-05-01T01:48:57.410Z,22.43
2023-05-01T01:51:27.241Z,21.17
2023-05-01T01:53:58.746Z,21.60
2023-05-01T01:56:28.398Z,23.27
2023-05-01T01:58:57.479Z,23.13
2023-05-01T02:01:25.796Z,22.80
2023-05-01T02:03:53.888Z,21.47
2023-05-01T02:06:23.226Z,22.20
2023-05-01T02:08:51.216Z,20.47
2023-05-01T02:11:21.313Z,19.27
2023-05-01T02:13:49.718Z,19.40
2023-05-01T02:16:17.957Z,17.97
2023-05-01T02:18:46.836Z,19.23
2023-05-01T02:21:16.444Z,18.27
2023-05-01T02:23:43.428Z,18.43
2023-05-01T02:26:17.179Z,16.77
2023-05-01T02:28:44.464Z,17.80
2023-05-01T02:31:11.779Z,17.80
2023-05-01T02:33:39.038Z,16.10
2023-05-01T02:36:06.176Z,17.13
2023-05-01T02:38:35.887Z,17.27
2023-05-01T02:41:04.135Z,15.73
2023-05-01T02:43:33.923Z,16.53
2023-05-01T02:46:04.904Z,18.90
2023-05-01T02:48:33.988Z,18.20
2023-05-01T02:51:02.218Z,16.10
2023-05-01T02:53:29.600Z,15.57
2023-05-01T02:55:59.718Z,15.63
2023-05-01T02:58:27.229Z,13.63
2023-05-01T03:00:53.929Z,14.00
2023-05-01T03:03:20.901Z,14.10
2023-05-01T03:05:48.082Z,13.97
2023-05-01T03:08:15.273Z,13.30
2023-05-01T03:10:43.527Z,13.23
2023-05-01T03:13:13.758Z,14.17
2023-05-01T03:15:41.441Z,12.77
2023-05-01T03:18:09.702Z,12.13
2023-05-01T03:20:36.874Z,13.13
2023-05-01T03:23:03.860Z,12.07
2023-05-01T03:25:30.657Z,10.73
2023-05-01T03:27:57.456Z,11.47
2023-05-01T03:30:24.327Z,11.43
2023-05-01T03:32:52.265Z,11.50
2023-05-01T03:35:19.436Z,10.10
2023-05-01T03:37:46.348Z,11.20
2023-05-01T03:40:13.922Z,10.40
2023-05-01T03:42:40.636Z,9.97
2023-05-01T03:45:08.293Z,9.73
2023-05-01T03:47:35.240Z,9.50
2023-05-01T03:50:02.679Z,9.97
2023-05-01T03:52:29.485Z,9.87
2023-05-01T03:54:57.487Z,9.10
2023-05-01T03:57:24.559Z,9.27
2023-05-01T03:59:51.301Z,9.03
2023-05-01T04:02:18.598Z,9.13
2023-05-01T04:04:45.579Z,9.10
2023-05-01T04:07:13.863Z,8.83
2023-05-01T04:09:40.825Z,8.53
2023-05-01T04:12:07.831Z,8.50
2023-05-01T04:14:34.690Z,8.37
2023-05-01T04:17:01.993Z,8.00
2023-05-01T04:19:28.921Z,7.87
2023-05-01T04:21:55.708Z,7.53
2023-05-01T04:24:22.692Z,7.83
2023-05-01T04:26:50.491Z,7.90
2023-05-01T04:29:17.392Z,7.70
2023-05-01T04:31:44.562Z,7.50
2023-05-01T04:34:11.598Z,7.37
2023-05-01T04:36:38.446Z,7.73
2023-05-01T04:39:05.638Z,7.50
2023-05-01T04:41:32.575Z,7.13
2023-05-01T04:43:59.484Z,6.67
2023-05-01T04:46:26.366Z,6.63
2023-05-01T04:48:53.239Z,7.90
2023-05-01T04:51:20.872Z,6.93
2023-05-01T04:53:47.909Z,6.40
2023-05-01T04:56:16.714Z,6.20
2023-05-01T04:58:45.061Z,6.70
2023-05-01T05:01:12.111Z,6.33
2023-05-01T05:03:39.317Z,5.67
2023-05-01T05:06:06.536Z,5.77
2023-05-01T05:08:33.652Z,6.33
2023-05-01T05:11:01.216Z,5.90
2023-05-01T05:13:29.191Z,5.83
2023-05-01T05:15:56.136Z,5.83
2023-05-01T05:18:23.289Z,5.67
2023-05-01T05:20:50.366Z,5.80
2023-05-01T05:23:17.269Z,5.80
2023-05-01T05:25:44.116Z,5.40
2023-05-01T05:28:10.982Z,5.80
2023-05-01T05:30:38.639Z,5.30
2023-05-01T05:33:10.045Z,5.47
2023-05-01T05:35:37.074Z,5.17
2023-05-01T05:38:04.036Z,4.83
2023-05-01T05:40:31.313Z,5.10
2023-05-01T05:42:58.301Z,5.13
2023-05-01T05:45:25.458Z,4.87
2023-05-01T05:47:52.398Z,5.43
2023-05-01T05:50:19.737Z,4.80
2023-05-01T05:52:46.781Z,4.83
2023-05-01T05:55:13.762Z,5.13
2023-05-01T05:57:41.076Z,4.43
2023-05-01T06:00:10.436Z,4.30
2023-05-01T06:02:37.872Z,4.17
2023-05-01T06:05:05.496Z,3.80
2023-05-01T06:07:32.440Z,4.40
2023-05-01T06:10:05.476Z,3.90
2023-05-01T06:12:34.133Z,4.00
2023-05-01T06:15:04.141Z,3.80
2023-05-01T06:17:31.358Z,4.00
2023-05-01T06:19:58.819Z,3.50
2023-05-01T06:22:25.834Z,3.77
2023-05-01T06:24:52.839Z,3.90
2023-05-01T06:27:19.785Z,3.40
2023-05-01T06:29:46.797Z,3.07
2023-05-01T06:32:13.716Z,3.60
2023-05-01T06:34:40.625Z,3.30
2023-05-01T06:37:08.048Z,3.20
2023-05-01T06:39:35.177Z,3.40
2023-05-01T06:42:03.561Z,2.83
2023-05-01T06:44:32.715Z,2.87
2023-05-01T06:47:02.087Z,3.10
2023-05-01T06:49:29.420Z,2.80
2023-05-01T06:51:56.566Z,2.90
2023-05-01T06:54:26.343Z,2.83
2023-05-01T06:56:53.924Z,3.07
2023-05-01T06:59:20.860Z,2.80
2023-05-01T07:01:48.000Z,2.60
2023-05-01T07:04:14.982Z,2.80
2023-05-01T07:06:42.174Z,2.60
2023-05-01T07:09:09.238Z,2.80
2023-05-01T07:11:36.959Z,2.67
2023-05-01T07:14:04.359Z,2.83
2023-05-01T07:16:31.642Z,3.17
2023-05-01T07:18:58.821Z,3.30
2023-05-01T07:21:25.729Z,2.77
2023-05-01T07:23:52.755Z,3.03
2023-05-01T07:26:20.504Z,2.80
2023-05-01T07:28:47.390Z,3.30
2023-05-01T07:31:14.524Z,2.83
2023-05-01T07:33:42.285Z,3.30
2023-05-01T07:36:09.629Z,3.47
2023-05-01T07:38:36.601Z,3.10
2023-05-01T07:41:03.767Z,3.10
2023-05-01T07:43:30.853Z,3.10
2023-05-01T07:46:01.759Z,2.93
2023-05-01T07:48:29.312Z,2.70
2023-05-01T07:50:57.294Z,3.20
2023-05-01T07:53:24.341Z,2.90
2023-05-01T07:55:51.271Z,3.10
2023-05-01T07:58:18.288Z,2.80
2023-05-01T08:00:47.863Z,3.20
2023-05-01T08:03:14.906Z,3.27
2023-05-01T08:05:42.703Z,3.40
2023-05-01T08:08:10.484Z,2.90
2023-05-01T08:10:37.434Z,2.80
2023-05-01T08:13:04.316Z,3.20
2023-05-01T08:15:31.526Z,2.93
2023-05-01T08:17:58.611Z,2.70
2023-05-01T08:20:25.463Z,3.40
2023-05-01T08:22:52.228Z,3.27
2023-05-01T08:25:19.449Z,3.20
2023-05-01T08:27:46.626Z,2.47
2023-05-01T08:30:13.702Z,3.40
2023-05-01T08:32:41.004Z,3.00
2023-05-01T08:35:08.493Z,2.63
2023-05-01T08:37:35.677Z,3.00
2023-05-01T08:40:08.616Z,2.80
2023-05-01T08:42:37.645Z,2.83
2023-05-01T08:45:08.894Z,3.00
2023-05-01T08:47:40.582Z,2.50
2023-05-01T08:50:14.480Z,2.80
2023-05-01T08:52:44.806Z,2.77
2023-05-01T08:55:16.096Z,2.77
2023-05-01T08:57:46.923Z,2.50
2023-05-01T09:00:21.537Z,2.57
2023-05-01T09:02:51.080Z,3.07
2023-05-01T09:05:19.199Z,2.73
2023-05-01T09:07:46.959Z,2.50
2023-05-01T09:10:21.669Z,2.60
2023-05-01T09:12:54.322Z,2.20
2023-05-01T09:15:21.781Z,2.20
2023-05-01T09:17:48.980Z,2.10
2023-05-01T09:20:18.323Z,2.33
2023-05-01T09:22:45.300Z,2.30
2023-05-01T09:25:12.450Z,2.27
2023-05-01T09:27:39.536Z,1.67
2023-05-01T09:30:07.782Z,2.53
2023-05-01T09:32:35.235Z,2.13
2023-05-01T09:35:15.484Z,2.27
2023-05-01T09:37:42.937Z,2.27
2023-05-01T09:40:12.215Z,2.10
2023-05-01T09:42:57.669Z,2.20
2023-05-01T09:45:26.847Z,2.90
2023-05-01T09:48:11.595Z,2.37
2023-05-01T09:50:42.724Z,2.20
2023-05-01T09:53:11.347Z,2.30
2023-05-01T09:55:38.476Z,2.10
2023-05-01T09:58:06.117Z,2.00
2023-05-01T10:00:50.163Z,2.33
2023-05-01T10:03:17.118Z,2.43
2023-05-01T10:05:44.929Z,2.30
2023-05-01T10:08:15.369Z,2.20
2023-05-01T10:10:45.912Z,2.20
2023-05-01T10:13:17.662Z,2.43
2023-05-01T10:15:49.424Z,2.10
2023-05-01T10:18:17.651Z,2.20
2023-05-01T10:20:44.667Z,2.00
2023-05-01T10:23:12.086Z,1.90
2023-05-01T10:25:42.136Z,1.67
2023-05-01T10:28:10.371Z,2.13
2023-05-01T10:30:40.029Z,1.83
2023-05-01T10:33:07.036Z,2.17
2023-05-01T10:35:40.472Z,1.83
2023-05-01T10:38:11.189Z,2.30
2023-05-01T10:40:41.458Z,2.23
2023-05-01T10:43:29.163Z,2.00
2023-05-01T10:46:17.104Z,2.33
2023-05-01T10:48:47.016Z,2.60
2023-05-01T10:51:27.500Z,2.23
2023-05-01T10:54:16.333Z,2.10
2023-05-01T10:56:44.069Z,2.33
2023-05-01T10:59:12.275Z,2.07
2023-05-01T11:01:47.960Z,2.30
2023-05-01T11:04:23.929Z,2.10
2023-05-01T11:07:06.100Z,2.07
2023-05-01T11:09:42.571Z,2.23
2023-05-01T11:12:14.274Z,2.10
2023-05-01T11:15:04.460Z,2.20
2023-05-01T11:17:44.813Z,2.00
2023-05-01T11:20:37.489Z,1.90
2023-05-01T11:23:04.673Z,1.83
2023-05-01T11:25:33.171Z,2.00
2023-05-01T11:28:02.456Z,2.10
2023-05-01T11:30:39.696Z,2.10
2023-05-01T11:33:10.112Z,2.07
2023-05-01T11:35:40.096Z,2.03
2023-05-01T11:38:16.547Z,2.07
2023-05-01T11:40:46.163Z,2.00
2023-05-01T11:43:12.985Z,1.80
2023-05-01T11:45:42.528Z,1.90
2023-05-01T11:48:19.229Z,1.80
2023-05-01T11:50:46.704Z,2.07
2023-05-01T11:53:23.389Z,2.13
2023-05-01T11:55:51.734Z,2.00
2023-05-01T11:58:19.613Z,1.90
2023-05-01T12:00:50.892Z,1.90
2023-05-01T12:03:18.247Z,1.90
2023-05-01T12:05:45.853Z,2.30
2023-05-01T12:08:19.711Z,2.10
2023-05-01T12:11:00.395Z,1.90
2023-05-01T12:13:27.349Z,2.20
2023-05-01T12:15:55.898Z,2.17
2023-05-01T12:18:23.192Z,1.93
2023-05-01T12:20:53.519Z,1.87
2023-05-01T12:23:30.741Z,2.20
2023-05-01T12:25:58.330Z,1.77
2023-05-01T12:28:25.298Z,1.80
2023-05-01T12:30:53.224Z,1.80
2023-05-01T12:33:21.556Z,1.87
2023-05-01T12:35:50.781Z,2.40
2023-05-01T12:38:20.364Z,1.80
2023-05-01T12:40:55.041Z,1.87
2023-05-01T12:43:30.027Z,1.90
2023-05-01T12:45:57.609Z,1.93
2023-05-01T12:48:25.014Z,1.80
2023-05-01T12:50:55.684Z,1.90
2023-05-01T12:53:24.043Z,1.73
2023-05-01T12:55:52.954Z,2.00
2023-05-01T12:58:20.390Z,2.00
2023-05-01T13:00:53.826Z,2.30
2023-05-01T13:03:31.294Z,1.80
2023-05-01T13:06:01.023Z,2.07
2023-05-01T13:08:29.163Z,1.90
2023-05-01T13:11:01.347Z,1.83
2023-05-01T13:13:34.472Z,2.00
2023-05-01T13:16:10.067Z,2.33
2023-05-01T13:18:48.308Z,2.10
2023-05-01T13:21:17.944Z,1.53
2023-05-01T13:23:59.343Z,1.90
2023-05-01T13:26:33.826Z,1.87
2023-05-01T13:29:02.138Z,1.90
2023-05-01T13:31:30.213Z,1.83
2023-05-01T13:33:59.094Z,2.10
2023-05-01T13:36:29.126Z,1.70
2023-05-01T13:38:57.140Z,1.37
2023-05-01T13:41:29.346Z,1.40
2023-05-01T13:43:57.659Z,1.60
2023-05-01T13:46:27.368Z,1.53
2023-05-01T13:48:54.451Z,1.83
2023-05-01T13:51:27.622Z,1.87
2023-05-01T13:53:56.559Z,1.80
2023-05-01T13:56:23.805Z,1.80
2023-05-01T13:58:51.205Z,1.87
2023-05-01T14:01:23.006Z,1.83
2023-05-01T14:03:52.384Z,2.13
2023-05-01T14:06:21.254Z,2.07
2023-05-01T14:08:51.846Z,1.60
2023-05-01T14:11:20.755Z,2.00
2023-05-01T14:13:49.871Z,1.90
2023-05-01T14:16:25.929Z,1.93
2023-05-01T14:18:57.596Z,2.00
2023-05-01T14:21:28.308Z,2.10
2023-05-01T14:23:57.248Z,1.80
2023-05-01T14:26:24.973Z,2.07
2023-05-01T14:28:52.542Z,1.60
2023-05-01T14:31:28.699Z,2.17
2023-05-01T14:33:58.054Z,2.03
2023-05-01T14:36:25.796Z,2.33
2023-05-01T14:38:53.410Z,2.40
2023-05-01T14:41:21.327Z,2.30
2023-05-01T14:43:54.321Z,2.30
2023-05-01T14:46:31.107Z,2.00
2023-05-01T14:48:59.656Z,2.00
2023-05-01T14:51:30.402Z,2.20
2023-05-01T14:53:57.455Z,2.57
2023-05-01T14:56:24.489Z,1.90
2023-05-01T14:58:51.518Z,2.10
2023-05-01T15:01:19.233Z,1.97
2023-05-01T15:03:46.514Z,2.03
2023-05-01T15:06:13.953Z,2.10
2023-05-01T15:08:41.073Z,2.07
2023-05-01T15:11:07.852Z,1.97
2023-05-01T15:13:34.816Z,2.27
2023-05-01T15:16:04.559Z,2.40
2023-05-01T15:18:31.699Z,2.50
2023-05-01T15:20:58.706Z,2.40
2023-05-01T15:23:27.823Z,2.10
2023-05-01T15:25:55.101Z,2.23
2023-05-01T15:28:22.279Z,2.10
2023-05-01T15:30:49.241Z,1.93
2023-05-01T15:33:20.980Z,2.50
2023-05-01T15:35:49.034Z,3.20
2023-05-01T15:38:16.077Z,3.47
2023-05-01T15:40:46.211Z,3.60
2023-05-01T15:43:13.261Z,3.07
2023-05-01T15:45:43.876Z,3.33
2023-05-01T15:48:16.303Z,3.07
2023-05-01T15:50:43.619Z,3.20
2023-05-01T15:53:10.599Z,3.20
2023-05-01T15:55:37.614Z,3.20
2023-05-01T15:58:04.700Z,3.17
2023-05-01T16:00:32.989Z,3.07
2023-05-01T16:03:02.062Z,2.83
2023-05-01T16:05:29.012Z,3.40
2023-05-01T16:08:00.243Z,3.23
2023-05-01T16:10:28.087Z,2.90
2023-05-01T16:12:55.248Z,3.00
2023-05-01T16:15:22.975Z,2.87
2023-05-01T16:17:51.620Z,2.90
2023-05-01T16:20:18.634Z,2.80
2023-05-01T16:22:45.515Z,2.90
2023-05-01T16:25:13.140Z,2.90
2023-05-01T16:27:42.616Z,3.03
2023-05-01T16:30:10.708Z,2.77
2023-05-01T16:32:39.870Z,2.90
2023-05-01T16:35:07.439Z,2.63
2023-05-01T16:37:34.746Z,3.30
2023-05-01T16:40:02.214Z,2.57
2023-05-01T16:42:29.544Z,2.87
2023-05-01T16:44:59.421Z,2.70
2023-05-01T16:47:26.433Z,3.17
2023-05-01T16:49:59.995Z,2.60
2023-05-01T16:52:27.703Z,2.73
2023-05-01T16:54:55.033Z,3.17
2023-05-01T16:57:22.840Z,2.60
2023-05-01T16:59:49.915Z,2.90
2023-05-01T17:02:17.036Z,3.17
2023-05-01T17:04:45.027Z,2.70
2023-05-01T17:07:12.363Z,3.13
2023-05-01T17:09:39.298Z,3.07
2023-05-01T17:12:12.452Z,2.97
2023-05-01T17:14:39.424Z,3.30
2023-05-01T17:17:09.453Z,2.73
2023-05-01T17:19:39.268Z,2.90
2023-05-01T17:22:07.769Z,2.93
2023-05-01T17:24:36.244Z,3.00
2023-05-01T17:27:06.047Z,2.83
2023-05-01T17:29:33.274Z,3.03
2023-05-01T17:32:00.318Z,2.93
2023-05-01T17:34:27.402Z,3.10
2023-05-01T17:36:56.508Z,2.90
2023-05-01T17:39:26.143Z,11.93
2023-05-01T17:41:52.994Z,5.80
2023-05-01T17:44:20.033Z,4.57
2023-05-01T17:46:46.764Z,2.83
2023-05-01T17:49:14.505Z,3.33
2023-05-01T17:51:41.687Z,3.00
2023-05-01T17:54:08.906Z,3.70
2023-05-01T17:56:36.025Z,3.17
2023-05-01T17:59:03.163Z,2.67
2023-05-01T18:01:30.940Z,2.60
2023-05-01T18:04:00.819Z,2.67
2023-05-01T18:06:28.046Z,2.70
2023-05-01T18:08:55.086Z,2.83
2023-05-01T18:11:22.205Z,3.10
2023-05-01T18:13:49.218Z,2.63
2023-05-01T18:16:19.293Z,3.23
2023-05-01T18:18:48.525Z,3.53
2023-05-01T18:21:18.189Z,2.90
2023-05-01T18:23:46.479Z,2.70
2023-05-01T18:26:14.937Z,2.63
2023-05-01T18:28:41.992Z,2.80
2023-05-01T18:31:10.650Z,3.60
2023-05-01T18:33:37.548Z,3.20
2023-05-01T18:36:04.726Z,2.60
2023-05-01T18:38:32.058Z,2.97
2023-05-01T18:40:58.904Z,2.80
2023-05-01T18:43:25.756Z,3.40
2023-05-01T18:45:54.218Z,3.13
2023-05-01T18:48:21.358Z,3.57
2023-05-01T18:50:57.522Z,3.37
2023-05-01T18:53:34.920Z,4.00
2023-05-01T18:56:01.991Z,3.60
2023-05-01T18:58:29.156Z,4.07
2023-05-01T19:00:56.612Z,3.87
2023-05-01T19:03:23.696Z,4.50
2023-05-01T19:05:50.705Z,4.60
2023-05-01T19:08:17.827Z,4.77
2023-05-01T19:10:44.864Z,4.43
2023-05-01T19:13:12.560Z,4.17
2023-05-01T19:15:39.645Z,4.40
2023-05-01T19:18:06.771Z,4.60
2023-05-01T19:20:33.919Z,4.43
2023-05-01T19:23:01.558Z,4.67
2023-05-01T19:25:29.767Z,4.47
2023-05-01T19:27:57.715Z,4.90
2023-05-01T19:30:24.703Z,4.53
2023-05-01T19:32:52.293Z,4.47
2023-05-01T19:35:19.180Z,4.70
2023-05-01T19:37:48.149Z,4.50
2023-05-01T19:40:16.435Z,5.07
2023-05-01T19:42:43.589Z,5.30
2023-05-01T19:45:10.880Z,4.80
2023-05-01T19:47:38.007Z,5.53
2023-05-01T19:50:05.183Z,5.37
2023-05-01T19:52:34.841Z,5.60
2023-05-01T19:55:04.424Z,5.13
2023-05-01T19:57:31.552Z,5.50
2023-05-01T20:00:02.015Z,6.07
2023-05-01T20:02:29.682Z,5.90
2023-05-01T20:04:56.827Z,5.10
2023-05-01T20:07:23.812Z,4.90
2023-05-01T20:09:51.144Z,4.80
2023-05-01T20:12:18.665Z,5.23
2023-05-01T20:14:45.783Z,5.40
2023-05-01T20:17:12.718Z,5.60
2023-05-01T20:19:40.094Z,5.47
2023-05-01T20:22:07.157Z,5.60
2023-05-01T20:24:34.360Z,5.30
2023-05-01T20:27:01.284Z,5.20
2023-05-01T20:29:28.491Z,5.63
2023-05-01T20:31:56.076Z,5.67
2023-05-01T20:34:23.881Z,5.87
2023-05-01T20:36:50.929Z,5.77
2023-05-01T20:39:17.976Z,6.07
2023-05-01T20:41:45.176Z,5.23
2023-05-01T20:44:12.154Z,5.70
2023-05-01T20:46:39.577Z,5.53
2023-05-01T20:49:08.948Z,6.00
2023-05-01T20:51:36.473Z,6.00
2023-05-01T20:54:03.343Z,5.77
2023-05-01T20:56:30.292Z,6.20
2023-05-01T20:58:57.304Z,6.57
2023-05-01T21:01:24.139Z,5.73
2023-05-01T21:03:51.618Z,6.17
2023-05-01T21:06:18.927Z,6.97
2023-05-01T21:08:46.432Z,5.97
2023-05-01T21:11:13.471Z,6.10
2023-05-01T21:13:40.256Z,5.70
2023-05-01T21:16:14.950Z,5.63
2023-05-01T21:18:42.561Z,5.30
2023-05-01T21:21:10.362Z,6.13
2023-05-01T21:23:45.098Z,6.53
2023-05-01T21:26:14.157Z,5.80
2023-05-01T21:28:41.321Z,6.20
2023-05-01T21:31:13.978Z,6.20
2023-05-01T21:33:45.980Z,6.07
2023-05-01T21:36:17.151Z,4.90
2023-05-01T21:38:44.124Z,6.70
2023-05-01T21:41:15.817Z,5.90
2023-05-01T21:43:43.083Z,6.20
2023-05-01T21:46:17.493Z,5.97
2023-05-01T21:48:50.873Z,6.00
2023-05-01T21:51:18.331Z,6.43
2023-05-01T21:53:45.308Z,6.50
2023-05-01T21:56:14.782Z,6.30
2023-05-01T21:58:41.706Z,6.40
2023-05-01T22:01:09.794Z,6.93
2023-05-01T22:03:40.928Z,6.70
2023-05-01T22:06:08.076Z,6.60
2023-05-01T22:08:34.948Z,6.80
2023-05-01T22:11:02.692Z,7.43
2023-05-01T22:13:33.843Z,7.63
2023-05-01T22:16:01.148Z,7.47
2023-05-01T22:18:29.337Z,7.50
2023-05-01T22:20:56.443Z,8.07
2023-05-01T22:23:24.192Z,8.50
2023-05-01T22:25:51.319Z,8.97
2023-05-01T22:28:18.356Z,8.63
2023-05-01T22:30:47.162Z,9.37
2023-05-01T22:33:14.064Z,10.40
2023-05-01T22:35:40.945Z,9.30
2023-05-01T22:38:08.651Z,10.20
2023-05-01T22:40:36.150Z,10.93
2023-05-01T22:43:03.075Z,12.57
2023-05-01T22:45:30.277Z,15.20
2023-05-01T22:47:57.426Z,16.33
2023-05-01T22:50:24.348Z,16.07
2023-05-01T22:52:51.327Z,18.10
2023-05-01T22:55:18.091Z,19.23
2023-05-01T22:57:46.007Z,20.47
2023-05-01T23:00:14.088Z,18.07
2023-05-01T23:02:41.232Z,18.60
2023-05-01T23:05:09.296Z,19.83
2023-05-01T23:07:37.047Z,20.13
2023-05-01T23:10:07.559Z,19.20
2023-05-01T23:12:34.593Z,19.90
2023-05-01T23:15:01.499Z,20.43
2023-05-01T23:17:34.912Z,20.17
2023-05-01T23:20:02.546Z,20.80
2023-05-01T23:22:30.493Z,21.97
2023-05-01T23:24:57.727Z,22.27
2023-05-01T23:27:24.703Z,24.63
2023-05-01T23:29:56.731Z,24.77
2023-05-01T23:32:27.105Z,25.50
2023-05-01T23:34:55.528Z,23.13
2023-05-01T23:37:22.637Z,24.27
2023-05-01T23:39:49.601Z,26.63
2023-05-01T23:42:16.625Z,26.33
2023-05-01T23:44:43.803Z,26.73
2023-05-01T23:47:11.085Z,28.27
2023-05-01T23:49:38.462Z,26.30
2023-05-01T23:52:06.937Z,25.87
2023-05-01T23:54:33.994Z,27.13
2023-05-01T23:57:01.943Z,27.67
2023-05-01T23:59:29.022Z,28.60
